Time;durP1;ratioP1;P1;durP2;ratioP2;P2;SDS_P1;SDS_P2;PMS_P1;PMS_P2;Temp;Humidity;BMP_temperature;BMP_pressure;BME280_temperature;BME280_humidity;BME280_pressure;Samples;Min_cycle;Max_cycle;Signal;HPM_P1;HPM_P2
2022/05/25 00:01:57;;;;;;;11.27;3.65;;;;;;;;;;5104057;28;20456;-68
2022/05/25 00:04:22;;;;;;;14.60;3.67;;;;;;;;;;5104616;28;20030;-68
2022/05/25 00:06:47;;;;;;;7.85;3.80;;;;;;;;;;5114509;28;20065;-68
2022/05/25 00:09:13;;;;;;;17.75;4.30;;;;;;;;;;5104664;28;20096;-68
2022/05/25 00:11:38;;;;;;;11.30;3.65;;;;;;;;;;5105170;28;20032;-68
2022/05/25 00:14:04;;;;;;;11.93;3.63;;;;;;;;;;5098790;28;20023;-68
2022/05/25 00:16:29;;;;;;;12.05;3.90;;;;;;;;;;5099621;28;20475;-68
2022/05/25 00:21:38;;;;;;;15.05;3.63;;;;;;;;;;5097364;28;20023;-68
2022/05/25 00:24:04;;;;;;;11.80;3.90;;;;;;;;;;5105960;28;20421;-68
2022/05/25 00:26:31;;;;;;;11.05;3.42;;;;;;;;;;5107122;28;20027;-68
2022/05/25 00:28:57;;;;;;;18.80;3.63;;;;;;;;;;5102819;28;20300;-68
2022/05/25 00:31:22;;;;;;;9.18;3.47;;;;;;;;;;5112569;28;20460;-68
2022/05/25 00:33:47;;;;;;;8.10;3.13;;;;;;;;;;5107666;28;20095;-68
2022/05/25 00:36:12;;;;;;;6.97;3.00;;;;;;;;;;5101606;28;20040;-68
2022/05/25 00:38:38;;;;;;;14.55;3.15;;;;;;;;;;5110915;28;20026;-68
2022/05/25 00:41:03;;;;;;;14.57;4.00;;;;;;;;;;5110311;28;20520;-68
2022/05/25 00:43:28;;;;;;;12.15;3.38;;;;;;;;;;5099735;28;20027;-68
2022/05/25 00:45:57;;;;;;;16.95;4.00;;;;;;;;;;5096522;28;20020;-68
2022/05/25 00:48:31;;;;;;;12.63;3.30;;;;;;;;;;5100713;28;20471;-68
2022/05/25 00:51:15;;;;;;;10.65;3.50;;;;;;;;;;5105466;28;20490;-68
2022/05/25 00:53:41;;;;;;;11.57;3.42;;;;;;;;;;5104953;28;20084;-68
2022/05/25 00:56:08;;;;;;;11.85;3.25;;;;;;;;;;5093343;28;20391;-68
2022/05/25 00:58:34;;;;;;;18.42;3.45;;;;;;;;;;5099386;28;20471;-68
2022/05/25 01:01:00;;;;;;;10.73;3.22;;;;;;;;;;5110405;28;20106;-68
2022/05/25 01:03:26;;;;;;;10.38;3.15;;;;;;;;;;5107977;28;20028;-67
2022/05/25 01:05:57;;;;;;;11.05;3.67;;;;;;;;;;5111709;28;20035;-68
2022/05/25 01:08:41;;;;;;;14.85;4.03;;;;;;;;;;5106113;28;20020;-68
2022/05/25 01:11:23;;;;;;;11.73;4.05;;;;;;;;;;5102398;28;20063;-68
2022/05/25 01:13:58;;;;;;;10.40;3.63;;;;;;;;;;5105879;28;20035;-68
2022/05/25 01:16:38;;;;;;;12.10;3.40;;;;;;;;;;5102688;28;20476;-68
2022/05/25 01:19:06;;;;;;;8.02;3.35;;;;;;;;;;5107170;28;20059;-68
2022/05/25 01:21:50;;;;;;;13.15;3.67;;;;;;;;;;5101406;28;20036;-68
2022/05/25 01:24:25;;;;;;;9.05;3.13;;;;;;;;;;5111323;28;20036;-68
2022/05/25 01:26:59;;;;;;;16.70;3.72;;;;;;;;;;5101627;28;20107;-68
2022/05/25 01:29:37;;;;;;;13.73;3.78;;;;;;;;;;5107416;28;20023;-67
2022/05/25 01:32:05;;;;;;;10.57;3.33;;;;;;;;;;5101331;28;20047;-68
2022/05/25 01:34:36;;;;;;;11.88;3.17;;;;;;;;;;5108525;28;20054;-68
2022/05/25 01:37:14;;;;;;;12.00;3.47;;;;;;;;;;5102634;28;20056;-68
2022/05/25 01:39:42;;;;;;;10.55;3.55;;;;;;;;;;5100750;28;20542;-68
2022/05/25 01:42:12;;;;;;;13.38;3.60;;;;;;;;;;5096823;28;20043;-68
2022/05/25 01:44:40;;;;;;;12.80;3.67;;;;;;;;;;5104275;28;20054;-68
2022/05/25 01:47:06;;;;;;;13.40;3.42;;;;;;;;;;5101725;28;20039;-67
2022/05/25 01:49:40;;;;;;;10.43;2.85;;;;;;;;;;5095671;28;20395;-68
2022/05/25 01:52:06;;;;;;;17.17;3.33;;;;;;;;;;5102756;28;20030;-68
2022/05/25 01:54:33;;;;;;;10.70;3.55;;;;;;;;;;5098662;28;20186;-68
2022/05/25 01:57:00;;;;;;;15.00;3.38;;;;;;;;;;5100477;28;20514;-68
2022/05/25 01:59:25;;;;;;;6.82;3.08;;;;;;;;;;5104874;28;20028;-68
2022/05/25 02:04:19;;;;;;;15.40;3.47;;;;;;;;;;5102661;28;20036;-68
2022/05/25 02:04:41;;;;;;;7.47;3.08;;;;;;;;;;5105590;28;20367;-68
2022/05/25 02:07:18;;;;;;;9.68;3.13;;;;;;;;;;5106906;28;20055;-68
2022/05/25 02:09:56;;;;;;;12.77;3.08;;;;;;;;;;5108997;28;20512;-68
2022/05/25 02:12:32;;;;;;;8.27;2.72;;;;;;;;;;5098424;28;20114;-68
2022/05/25 02:15:03;;;;;;;11.50;3.13;;;;;;;;;;5102919;28;20024;-68
2022/05/25 02:17:35;;;;;;;11.20;2.80;;;;;;;;;;5098317;28;20433;-68
2022/05/25 02:20:05;;;;;;;9.98;2.75;;;;;;;;;;5097186;28;20028;-68
2022/05/25 02:22:34;;;;;;;12.85;3.38;;;;;;;;;;5102557;28;20027;-68
2022/05/25 02:25:03;;;;;;;9.68;2.83;;;;;;;;;;5101810;28;20357;-68
2022/05/25 02:27:31;;;;;;;13.30;3.33;;;;;;;;;;5098966;28;20035;-68
2022/05/25 02:29:58;;;;;;;10.50;2.97;;;;;;;;;;5110643;28;20490;-68
2022/05/25 02:32:32;;;;;;;9.25;3.03;;;;;;;;;;5101283;28;20048;-68
2022/05/25 02:34:57;;;;;;;12.52;3.00;;;;;;;;;;5106586;28;20022;-68
2022/05/25 02:37:25;;;;;;;10.85;2.88;;;;;;;;;;5100066;28;20498;-68
2022/05/25 02:39:52;;;;;;;6.45;2.75;;;;;;;;;;5107063;28;20468;-68
2022/05/25 02:42:17;;;;;;;9.98;3.15;;;;;;;;;;5103856;28;20106;-68
2022/05/25 02:44:43;;;;;;;11.68;2.97;;;;;;;;;;5109093;28;20204;-68
2022/05/25 02:47:09;;;;;;;10.65;3.22;;;;;;;;;;5102712;28;20461;-68
2022/05/25 02:49:35;;;;;;;8.25;2.70;;;;;;;;;;5104156;28;20131;-68
2022/05/25 02:52:00;;;;;;;9.95;2.97;;;;;;;;;;5101656;28;20042;-68
2022/05/25 02:54:25;;;;;;;12.55;2.78;;;;;;;;;;5095708;28;20383;-68
2022/05/25 02:56:50;;;;;;;9.10;2.65;;;;;;;;;;5098655;28;20039;-68
2022/05/25 02:59:16;;;;;;;8.63;2.97;;;;;;;;;;5106827;28;20391;-68
2022/05/25 03:01:41;;;;;;;9.70;2.63;;;;;;;;;;5103425;28;20048;-68
2022/05/25 03:04:06;;;;;;;10.38;2.72;;;;;;;;;;5088086;28;20035;-68
2022/05/25 03:06:32;;;;;;;14.43;2.70;;;;;;;;;;5112387;28;20032;-68
2022/05/25 03:08:57;;;;;;;10.52;2.45;;;;;;;;;;5107180;28;20022;-68
2022/05/25 03:11:24;;;;;;;30.65;3.17;;;;;;;;;;5103722;28;20447;-68
2022/05/25 03:13:49;;;;;;;16.60;1.85;;;;;;;;;;5103286;28;20078;-68
2022/05/25 03:16:15;;;;;;;29.25;2.60;;;;;;;;;;5099640;28;20543;-68
2022/05/25 03:18:41;;;;;;;20.77;2.60;;;;;;;;;;5102542;28;20110;-68
2022/05/25 03:21:08;;;;;;;22.30;3.35;;;;;;;;;;5104478;28;20474;-68
2022/05/25 03:23:33;;;;;;;14.90;2.72;;;;;;;;;;5104865;28;20091;-68
2022/05/25 03:25:58;;;;;;;17.73;2.40;;;;;;;;;;5109761;28;20107;-68
2022/05/25 03:28:24;;;;;;;13.23;2.10;;;;;;;;;;5102692;28;20539;-68
2022/05/25 03:30:49;;;;;;;15.75;2.25;;;;;;;;;;5098404;28;20019;-68
2022/05/25 03:33:14;;;;;;;17.65;2.00;;;;;;;;;;5107400;28;20034;-68
2022/05/25 03:35:40;;;;;;;16.60;2.42;;;;;;;;;;5112846;28;20118;-68
2022/05/25 03:38:06;;;;;;;16.42;1.73;;;;;;;;;;5109734;28;20046;-68
2022/05/25 03:40:31;;;;;;;20.75;1.98;;;;;;;;;;5105763;28;20020;-68
2022/05/25 03:42:57;;;;;;;18.48;2.22;;;;;;;;;;5107285;28;20028;-68
2022/05/25 03:45:23;;;;;;;17.90;2.08;;;;;;;;;;5109538;28;20077;-68
2022/05/25 03:47:48;;;;;;;11.93;2.08;;;;;;;;;;5104207;28;20039;-68
2022/05/25 03:50:14;;;;;;;14.95;1.60;;;;;;;;;;5100195;28;20031;-68
2022/05/25 03:52:39;;;;;;;17.80;2.13;;;;;;;;;;5105214;28;20031;-69
2022/05/25 03:55:05;;;;;;;9.13;1.70;;;;;;;;;;5103296;28;20020;-68
2022/05/25 03:57:31;;;;;;;12.23;1.48;;;;;;;;;;5106212;28;20062;-68
2022/05/25 03:59:56;;;;;;;7.13;1.65;;;;;;;;;;5101832;28;20558;-68
2022/05/25 04:02:21;;;;;;;14.73;1.77;;;;;;;;;;5098078;28;20035;-69
2022/05/25 04:04:46;;;;;;;11.35;1.30;;;;;;;;;;5104401;28;20161;-68
2022/05/25 04:07:12;;;;;;;11.80;1.80;;;;;;;;;;5099331;28;20047;-68
2022/05/25 04:09:37;;;;;;;9.85;1.40;;;;;;;;;;5111450;28;20106;-69
2022/05/25 04:12:02;;;;;;;15.35;1.70;;;;;;;;;;5107291;28;20069;-68
2022/05/25 04:14:28;;;;;;;8.95;1.35;;;;;;;;;;5109736;28;20034;-68
2022/05/25 04:16:53;;;;;;;11.20;1.80;;;;;;;;;;5100148;28;20108;-68
2022/05/25 04:19:18;;;;;;;8.93;1.63;;;;;;;;;;5104146;28;20059;-68
2022/05/25 04:21:44;;;;;;;15.23;1.50;;;;;;;;;;5101810;28;20026;-68
2022/05/25 04:24:09;;;;;;;6.30;1.30;;;;;;;;;;5102381;28;20032;-68
2022/05/25 04:26:34;;;;;;;7.78;1.20;;;;;;;;;;5107840;28;20028;-68
2022/05/25 04:29:00;;;;;;;13.52;1.50;;;;;;;;;;5102170;28;20359;-68
2022/05/25 04:31:26;;;;;;;14.35;1.60;;;;;;;;;;5109059;28;20039;-68
2022/05/25 04:33:51;;;;;;;9.60;1.48;;;;;;;;;;5106197;28;20035;-68
2022/05/25 04:36:16;;;;;;;11.32;1.55;;;;;;;;;;5110935;28;20056;-68
2022/05/25 04:38:41;;;;;;;11.05;1.40;;;;;;;;;;5110055;28;20054;-68
2022/05/25 04:41:07;;;;;;;13.30;1.58;;;;;;;;;;5106078;28;20375;-68
2022/05/25 04:43:32;;;;;;;18.98;2.00;;;;;;;;;;5108495;28;20046;-68
2022/05/25 04:46:01;;;;;;;9.88;1.40;;;;;;;;;;5106748;28;20036;-68
2022/05/25 04:48:27;;;;;;;9.43;1.80;;;;;;;;;;5110345;28;20036;-68
2022/05/25 04:50:53;;;;;;;8.60;1.20;;;;;;;;;;5107136;28;20016;-68
2022/05/25 04:53:19;;;;;;;13.93;1.40;;;;;;;;;;5100365;28;20031;-68
2022/05/25 04:58:28;;;;;;;;;;;;;;;;;;5108261;28;20706;-68
2022/05/25 05:00:54;;;;;;;14.07;1.60;;;;;;;;;;5102849;28;19916;-68
2022/05/25 05:03:20;;;;;;;14.52;1.92;;;;;;;;;;5100060;28;20116;-68
2022/05/25 05:05:45;;;;;;;12.13;1.70;;;;;;;;;;5105809;28;20377;-68
2022/05/25 05:08:11;;;;;;;9.15;1.52;;;;;;;;;;5102080;28;20027;-68
2022/05/25 05:10:37;;;;;;;12.48;1.30;;;;;;;;;;5106171;28;20027;-68
2022/05/25 05:13:04;;;;;;;7.07;1.30;;;;;;;;;;5101486;28;20016;-68
2022/05/25 05:15:31;;;;;;;8.32;1.30;;;;;;;;;;5107226;28;20077;-68
2022/05/25 05:17:56;;;;;;;12.20;1.50;;;;;;;;;;5107862;28;20067;-68
2022/05/25 05:20:22;;;;;;;12.00;1.70;;;;;;;;;;5102289;28;20047;-68
2022/05/25 05:22:47;;;;;;;10.02;1.58;;;;;;;;;;5107526;28;20110;-69
2022/05/25 05:25:12;;;;;;;8.07;1.58;;;;;;;;;;5083659;28;20031;-68
2022/05/25 05:27:37;;;;;;;9.95;1.65;;;;;;;;;;5095611;28;20498;-68
2022/05/25 05:30:04;;;;;;;10.25;1.90;;;;;;;;;;5109998;28;20023;-68
2022/05/25 05:32:30;;;;;;;10.38;2.00;;;;;;;;;;5096897;28;20566;-69
2022/05/25 05:34:56;;;;;;;14.95;1.80;;;;;;;;;;5102953;28;20106;-68
2022/05/25 05:37:44;;;;;;;7.28;1.35;;;;;;;;;;5103351;28;20123;-69
2022/05/25 05:40:10;;;;;;;12.75;1.80;;;;;;;;;;5091120;28;20044;-68
2022/05/25 05:42:40;;;;;;;13.40;1.50;;;;;;;;;;5089360;28;20024;-68
2022/05/25 05:45:08;;;;;;;11.13;1.48;;;;;;;;;;5103040;28;20032;-68
2022/05/25 05:47:41;;;;;;;14.98;1.60;;;;;;;;;;5106265;28;20024;-68
2022/05/25 05:50:06;;;;;;;8.32;1.30;;;;;;;;;;5106380;28;20055;-68
2022/05/25 05:52:33;;;;;;;11.50;1.73;;;;;;;;;;5102765;28;20434;-68
2022/05/25 05:54:58;;;;;;;9.43;1.60;;;;;;;;;;5106109;28;20030;-68
2022/05/25 05:57:24;;;;;;;10.95;1.60;;;;;;;;;;5103219;28;20120;-68
2022/05/25 05:59:49;;;;;;;11.70;1.90;;;;;;;;;;5097396;28;20381;-68
2022/05/25 06:02:14;;;;;;;10.15;1.88;;;;;;;;;;5101731;28;20056;-68
2022/05/25 06:04:39;;;;;;;8.85;1.67;;;;;;;;;;5099001;28;20031;-68
2022/05/25 06:07:05;;;;;;;8.23;1.38;;;;;;;;;;5098173;28;20028;-68
2022/05/25 06:09:30;;;;;;;9.52;1.35;;;;;;;;;;5099250;28;20050;-68
2022/05/25 06:11:55;;;;;;;5.70;1.38;;;;;;;;;;5109720;28;20032;-68
2022/05/25 06:14:20;;;;;;;8.85;1.50;;;;;;;;;;5110292;28;20042;-68
2022/05/25 06:19:30;;;;;;;10.32;1.50;;;;;;;;;;5106197;28;20059;-68
2022/05/25 06:21:59;;;;;;;7.85;1.60;;;;;;;;;;5095897;28;20452;-68
2022/05/25 06:24:25;;;;;;;5.43;1.20;;;;;;;;;;5105086;28;20482;-68
2022/05/25 06:26:50;;;;;;;6.25;1.33;;;;;;;;;;5097308;28;20016;-68
2022/05/25 06:29:17;;;;;;;5.18;1.23;;;;;;;;;;5102197;28;20031;-68
2022/05/25 06:31:43;;;;;;;9.25;1.60;;;;;;;;;;5111359;28;20024;-68
2022/05/25 06:34:08;;;;;;;5.85;1.40;;;;;;;;;;5107872;28;20084;-68
2022/05/25 06:36:34;;;;;;;8.20;1.40;;;;;;;;;;5102961;28;20048;-68
2022/05/25 06:38:59;;;;;;;4.90;1.17;;;;;;;;;;5102713;28;20043;-68
2022/05/25 06:41:25;;;;;;;10.13;1.52;;;;;;;;;;5103571;28;20016;-68
2022/05/25 06:43:50;;;;;;;12.80;1.70;;;;;;;;;;5111899;28;20038;-68
2022/05/25 06:46:18;;;;;;;9.57;1.63;;;;;;;;;;5104826;28;20028;-68
2022/05/25 06:48:44;;;;;;;10.77;2.17;;;;;;;;;;5110905;28;20494;-68
2022/05/25 06:51:29;;;;;;;7.55;1.70;;;;;;;;;;5112363;28;20027;-68
2022/05/25 06:53:55;;;;;;;11.73;1.30;;;;;;;;;;5112837;28;20035;-68
2022/05/25 06:56:22;;;;;;;12.32;1.38;;;;;;;;;;5112530;28;20386;-68
2022/05/25 06:58:47;;;;;;;10.52;1.42;;;;;;;;;;5109725;28;20081;-68
2022/05/25 07:01:12;;;;;;;13.93;1.80;;;;;;;;;;5112594;28;20028;-68
2022/05/25 07:03:38;;;;;;;5.88;1.50;;;;;;;;;;5112295;28;20502;-68
2022/05/25 07:06:04;;;;;;;6.78;1.73;;;;;;;;;;5112914;28;20035;-68
2022/05/25 07:08:30;;;;;;;5.22;1.30;;;;;;;;;;5111097;28;21290;-68
2022/05/25 07:10:55;;;;;;;6.03;1.55;;;;;;;;;;5107619;28;20107;-68
2022/05/25 07:13:21;;;;;;;6.22;1.60;;;;;;;;;;5099112;28;20024;-68
2022/05/25 07:15:47;;;;;;;10.18;1.70;;;;;;;;;;5111106;28;20118;-68
2022/05/25 07:18:12;;;;;;;7.93;1.60;;;;;;;;;;5112596;28;20118;-68
2022/05/25 07:20:37;;;;;;;6.65;1.48;;;;;;;;;;5098975;28;20046;-68
2022/05/25 07:23:02;;;;;;;5.68;1.08;;;;;;;;;;5104291;28;20050;-68
2022/05/25 07:25:28;;;;;;;7.20;1.70;;;;;;;;;;5112502;28;20609;-68
2022/05/25 07:27:53;;;;;;;8.02;2.00;;;;;;;;;;5110593;28;20024;-68
2022/05/25 07:30:19;;;;;;;5.13;1.40;;;;;;;;;;5112345;28;20042;-68
2022/05/25 07:32:45;;;;;;;5.40;1.20;;;;;;;;;;5097776;28;20114;-68
2022/05/25 07:35:11;;;;;;;4.80;1.40;;;;;;;;;;5099262;28;20020;-68
2022/05/25 07:37:38;;;;;;;5.18;1.40;;;;;;;;;;5102657;28;20051;-68
2022/05/25 07:40:06;;;;;;;7.88;1.50;;;;;;;;;;5106840;28;20602;-68
2022/05/25 07:42:32;;;;;;;4.53;1.27;;;;;;;;;;5099458;28;20058;-68
2022/05/25 07:44:59;;;;;;;8.60;1.48;;;;;;;;;;5112010;28;20024;-68
2022/05/25 07:47:25;;;;;;;6.78;1.80;;;;;;;;;;5114577;28;20031;-68
2022/05/25 07:49:51;;;;;;;8.82;1.67;;;;;;;;;;5077899;28;20020;-69
2022/05/25 07:52:16;;;;;;;8.82;1.77;;;;;;;;;;5105158;28;20047;-68
2022/05/25 07:54:42;;;;;;;9.90;1.55;;;;;;;;;;5109988;28;20039;-68
2022/05/25 07:57:08;;;;;;;5.80;1.30;;;;;;;;;;5114878;28;20035;-68
2022/05/25 07:59:33;;;;;;;4.15;1.20;;;;;;;;;;5106361;28;20057;-68
2022/05/25 08:07:29;;;;;;;6.85;1.17;;;;;;;;;;5108201;28;20047;-68
2022/05/25 08:10:01;;;;;;;5.78;1.60;;;;;;;;;;5100292;28;20019;-68
2022/05/25 08:12:28;;;;;;;9.25;1.45;;;;;;;;;;5111146;28;20039;-68
2022/05/25 08:14:53;;;;;;;5.20;1.23;;;;;;;;;;5104735;28;20020;-68
2022/05/25 08:17:20;;;;;;;5.40;1.13;;;;;;;;;;5110440;28;20032;-68
2022/05/25 08:19:45;;;;;;;5.97;1.50;;;;;;;;;;5108641;28;20067;-68
2022/05/25 08:22:10;;;;;;;7.60;1.30;;;;;;;;;;5114302;28;20112;-68
2022/05/25 08:24:36;;;;;;;6.07;1.42;;;;;;;;;;5113874;28;20020;-68
2022/05/25 08:27:01;;;;;;;3.45;1.35;;;;;;;;;;5105490;28;20039;-68
2022/05/25 08:29:26;;;;;;;1.92;0.95;;;;;;;;;;5115152;28;20015;-68
2022/05/25 08:31:58;;;;;;;1.95;1.10;;;;;;;;;;5103498;28;20511;-68
2022/05/25 08:34:23;;;;;;;2.47;0.80;;;;;;;;;;5090917;28;20391;-68
2022/05/25 08:36:49;;;;;;;4.47;0.82;;;;;;;;;;5104323;28;20040;-69
2022/05/25 08:39:14;;;;;;;2.83;0.82;;;;;;;;;;5107037;28;20020;-68
2022/05/25 08:41:41;;;;;;;2.58;0.80;;;;;;;;;;5111522;28;20067;-69
2022/05/25 08:44:07;;;;;;;2.20;0.70;;;;;;;;;;5107049;28;20012;-69
2022/05/25 08:46:33;;;;;;;2.13;0.70;;;;;;;;;;5106997;28;20012;-69
2022/05/25 08:49:02;;;;;;;2.78;1.02;;;;;;;;;;5107608;28;20027;-69
2022/05/25 08:51:29;;;;;;;4.32;0.85;;;;;;;;;;5107759;28;20502;-68
2022/05/25 08:53:58;;;;;;;1.85;0.57;;;;;;;;;;5111608;28;20012;-68
2022/05/25 08:56:26;;;;;;;1.35;0.57;;;;;;;;;;5108802;28;20043;-68
2022/05/25 08:58:55;;;;;;;0.68;0.50;;;;;;;;;;5110925;28;20141;-68
2022/05/25 09:01:24;;;;;;;1.42;0.57;;;;;;;;;;5103403;28;20019;-68
2022/05/25 09:03:57;;;;;;;2.50;0.77;;;;;;;;;;5110848;28;20424;-68
2022/05/25 09:06:22;;;;;;;2.47;0.80;;;;;;;;;;5110868;28;20027;-68
2022/05/25 09:08:59;;;;;;;2.08;0.80;;;;;;;;;;5100277;28;20787;-68
2022/05/25 09:11:27;;;;;;;3.30;0.90;;;;;;;;;;5099687;28;20028;-68
2022/05/25 09:13:58;;;;;;;2.65;1.00;;;;;;;;;;5091219;28;20028;-68
2022/05/25 09:16:25;;;;;;;2.97;1.05;;;;;;;;;;5110897;28;20040;-68
2022/05/25 09:18:50;;;;;;;4.88;1.05;;;;;;;;;;5099573;28;20080;-68
2022/05/25 09:21:20;;;;;;;2.53;1.10;;;;;;;;;;5110984;28;20035;-69
2022/05/25 09:23:45;;;;;;;3.28;1.27;;;;;;;;;;5111085;28;20015;-69
2022/05/25 09:26:13;;;;;;;2.85;1.10;;;;;;;;;;5109257;28;20076;-68
2022/05/25 09:28:42;;;;;;;5.43;1.20;;;;;;;;;;5101085;28;20036;-69
2022/05/25 09:31:11;;;;;;;3.67;1.30;;;;;;;;;;5110454;28;20023;-68
2022/05/25 09:33:43;;;;;;;3.38;1.40;;;;;;;;;;5110385;28;20428;-68
2022/05/25 09:36:14;;;;;;;7.82;1.48;;;;;;;;;;5110326;28;20763;-68
2022/05/25 09:38:41;;;;;;;3.22;1.10;;;;;;;;;;5109980;28;20076;-68
2022/05/25 09:41:08;;;;;;;3.13;0.95;;;;;;;;;;5092044;28;20039;-68
2022/05/25 09:43:34;;;;;;;3.60;1.00;;;;;;;;;;5110385;28;20363;-68
2022/05/25 09:46:07;;;;;;;3.60;1.10;;;;;;;;;;5110121;28;20036;-68
2022/05/25 09:48:34;;;;;;;3.53;1.00;;;;;;;;;;5104830;28;20028;-68
2022/05/25 09:51:02;;;;;;;3.13;1.10;;;;;;;;;;5098136;28;20032;-69
2022/05/25 09:53:34;;;;;;;1.77;0.73;;;;;;;;;;5109573;28;20589;-68
2022/05/25 09:56:03;;;;;;;3.30;1.00;;;;;;;;;;5110841;28;20126;-69
2022/05/25 09:58:31;;;;;;;3.72;0.90;;;;;;;;;;5091926;28;20038;-68
2022/05/25 10:01:02;;;;;;;3.10;0.73;;;;;;;;;;5104720;28;20050;-69
2022/05/25 10:03:34;;;;;;;3.70;0.90;;;;;;;;;;5110631;28;20035;-68
2022/05/25 10:06:00;;;;;;;4.32;0.90;;;;;;;;;;5097899;28;20567;-68
2022/05/25 10:08:39;;;;;;;5.90;1.15;;;;;;;;;;5109354;28;20469;-68
2022/05/25 10:11:13;;;;;;;7.63;0.93;;;;;;;;;;5108273;28;20063;-68
2022/05/25 10:13:41;;;;;;;1.90;0.90;;;;;;;;;;5107872;28;20171;-69
2022/05/25 10:16:25;;;;;;;5.53;1.00;;;;;;;;;;5101604;28;20047;-68
2022/05/25 10:18:50;;;;;;;2.35;0.90;;;;;;;;;;5100612;28;20030;-69
2022/05/25 10:21:26;;;;;;;3.58;1.23;;;;;;;;;;5109316;28;20107;-69
2022/05/25 10:23:52;;;;;;;3.08;1.05;;;;;;;;;;5109573;28;20028;-68
2022/05/25 10:26:31;;;;;;;3.00;0.90;;;;;;;;;;5110076;28;20077;-69
2022/05/25 10:29:00;;;;;;;4.13;1.00;;;;;;;;;;5102975;28;20502;-69
2022/05/25 10:37:19;;;;;;;2.97;1.10;;;;;;;;;;5109586;28;20518;-69
2022/05/25 10:40:05;;;;;;;2.38;0.90;;;;;;;;;;5100050;28;20036;-69
2022/05/25 10:42:39;;;;;;;2.80;0.90;;;;;;;;;;5087360;28;20036;-69
2022/05/25 10:45:05;;;;;;;3.00;1.02;;;;;;;;;;5096484;28;20483;-69
2022/05/25 10:47:39;;;;;;;4.35;0.98;;;;;;;;;;5109397;28;20055;-68
2022/05/25 10:50:10;;;;;;;2.28;0.90;;;;;;;;;;5100612;28;20040;-69
2022/05/25 10:52:38;;;;;;;2.00;0.85;;;;;;;;;;5095943;28;20020;-69
2022/05/25 10:55:05;;;;;;;3.50;0.90;;;;;;;;;;5109642;28;20035;-68
2022/05/25 10:57:44;;;;;;;2.30;1.00;;;;;;;;;;5109021;28;20454;-69
2022/05/25 11:00:09;;;;;;;1.98;0.82;;;;;;;;;;5093230;28;20089;-69
2022/05/25 11:02:53;;;;;;;2.60;1.10;;;;;;;;;;5087432;28;20032;-68
2022/05/25 11:05:24;;;;;;;4.05;1.02;;;;;;;;;;5092398;28;20038;-69
2022/05/25 11:07:52;;;;;;;4.05;1.13;;;;;;;;;;5102839;28;20055;-69
2022/05/25 11:10:29;;;;;;;5.43;1.55;;;;;;;;;;5108234;28;20058;-69
2022/05/25 11:12:57;;;;;;;4.13;0.95;;;;;;;;;;5109247;28;20027;-68
2022/05/25 11:15:22;;;;;;;4.70;1.20;;;;;;;;;;5109283;28;20115;-69
2022/05/25 11:18:01;;;;;;;3.25;1.10;;;;;;;;;;5106802;28;20564;-68
2022/05/25 11:20:26;;;;;;;4.82;1.33;;;;;;;;;;5100070;28;20081;-69
2022/05/25 11:23:09;;;;;;;5.70;1.30;;;;;;;;;;5112400;28;20035;-68
2022/05/25 11:25:35;;;;;;;;;;;;;;;;;;5113587;28;20028;-68
2022/05/25 11:28:19;;;;;;;2.95;1.02;;;;;;;;;;5113346;28;19912;-68
2022/05/25 11:31:02;;;;;;;3.15;1.05;;;;;;;;;;5112230;28;20501;-69
2022/05/25 11:33:37;;;;;;;5.00;1.30;;;;;;;;;;5112122;28;20068;-68
2022/05/25 11:36:11;;;;;;;5.78;1.08;;;;;;;;;;5112136;28;20047;-68
2022/05/25 11:38:56;;;;;;;5.40;1.40;;;;;;;;;;5113017;28;20016;-68
2022/05/25 11:41:24;;;;;;;7.07;1.33;;;;;;;;;;5112271;28;20036;-69
2022/05/25 11:44:04;;;;;;;3.45;1.20;;;;;;;;;;5113510;28;20059;-70
2022/05/25 11:46:29;;;;;;;5.30;1.40;;;;;;;;;;5110206;28;20436;-68
2022/05/25 11:49:15;;;;;;;4.65;1.20;;;;;;;;;;5112448;28;20020;-69
2022/05/25 11:51:59;;;;;;;5.72;1.20;;;;;;;;;;5105528;28;20027;-68
2022/05/25 11:54:31;;;;;;;6.13;1.30;;;;;;;;;;5112180;28;20107;-68
2022/05/25 11:57:05;;;;;;;3.55;1.30;;;;;;;;;;5112795;28;20542;-68
2022/05/25 11:59:44;;;;;;;3.47;1.20;;;;;;;;;;5108729;28;20030;-69
2022/05/25 12:02:09;;;;;;;4.50;1.30;;;;;;;;;;5098118;28;20161;-69
2022/05/25 12:04:41;;;;;;;4.83;1.40;;;;;;;;;;5110167;28;20098;-69
2022/05/25 12:07:09;;;;;;;5.70;1.30;;;;;;;;;;5109488;28;20669;-69
2022/05/25 12:09:43;;;;;;;5.65;1.70;;;;;;;;;;5102279;28;20798;-69
2022/05/25 12:12:21;;;;;;;5.22;1.38;;;;;;;;;;5110291;28;20062;-69
2022/05/25 12:14:49;;;;;;;6.35;1.40;;;;;;;;;;5107000;28;20084;-69
2022/05/25 12:17:14;;;;;;;3.47;1.30;;;;;;;;;;5091276;28;20051;-69
2022/05/25 12:19:39;;;;;;;5.90;1.63;;;;;;;;;;5094420;28;20032;-69
2022/05/25 12:22:08;;;;;;;6.35;1.55;;;;;;;;;;5111501;28;20058;-69
2022/05/25 12:24:38;;;;;;;9.68;2.05;;;;;;;;;;5101443;28;20455;-68
2022/05/25 12:27:05;;;;;;;5.25;1.42;;;;;;;;;;5097444;28;20036;-69
2022/05/25 12:29:33;;;;;;;7.30;1.58;;;;;;;;;;5110277;28;20027;-69
2022/05/25 12:31:59;;;;;;;8.57;1.67;;;;;;;;;;5094229;28;20027;-69
2022/05/25 12:34:30;;;;;;;5.55;1.45;;;;;;;;;;5100074;28;20035;-69
2022/05/25 12:36:56;;;;;;;4.90;1.15;;;;;;;;;;5105785;28;20044;-68
2022/05/25 12:39:47;;;;;;;4.60;1.30;;;;;;;;;;5106029;28;20060;-69
2022/05/25 12:42:23;;;;;;;3.50;1.13;;;;;;;;;;5106762;28;20051;-69
2022/05/25 12:50:46;;;;;;;5.18;1.17;;;;;;;;;;5110528;28;20022;-68
2022/05/25 12:53:26;;;;;;;5.05;1.30;;;;;;;;;;5105946;28;20076;-69
2022/05/25 12:55:56;;;;;;;5.38;1.38;;;;;;;;;;5099297;28;20019;-68
2022/05/25 12:58:51;;;;;;;5.18;1.55;;;;;;;;;;5102667;28;20079;-68
2022/05/25 13:01:22;;;;;;;5.03;1.27;;;;;;;;;;5072368;28;20044;-69
2022/05/25 13:03:47;;;;;;;8.23;1.60;;;;;;;;;;5091119;28;20040;-68
2022/05/25 13:06:15;;;;;;;6.77;1.47;;;;;;;;;;5099926;28;20028;-69
2022/05/25 13:08:49;;;;;;;12.43;2.30;;;;;;;;;;5096854;28;20264;-68
2022/05/25 13:11:29;;;;;;;5.60;1.88;;;;;;;;;;5095361;28;20027;-69
2022/05/25 13:13:55;;;;;;;5.18;1.70;;;;;;;;;;5105810;28;20204;-68
2022/05/25 13:16:39;;;;;;;7.57;1.83;;;;;;;;;;5097642;28;20085;-68
2022/05/25 13:19:20;;;;;;;6.72;1.75;;;;;;;;;;5094234;28;20032;-68
2022/05/25 13:22:06;;;;;;;8.73;2.00;;;;;;;;;;5101129;28;20046;-69
2022/05/25 13:24:43;;;;;;;7.57;2.08;;;;;;;;;;5100688;28;20043;-68
2022/05/25 13:27:21;;;;;;;8.15;1.75;;;;;;;;;;5106353;28;20035;-68
2022/05/25 13:29:52;;;;;;;8.30;1.60;;;;;;;;;;5098265;28;20020;-69
2022/05/25 13:32:34;;;;;;;7.50;1.67;;;;;;;;;;5100226;28;20027;-69
2022/05/25 13:35:02;;;;;;;10.50;1.67;;;;;;;;;;5099035;28;20031;-69
2022/05/25 13:37:30;;;;;;;11.73;2.05;;;;;;;;;;5102710;28;20096;-69
2022/05/25 13:39:56;;;;;;;7.78;1.80;;;;;;;;;;5101035;28;20042;-68
2022/05/25 13:42:21;;;;;;;4.93;1.52;;;;;;;;;;5099401;28;20367;-69
2022/05/25 13:44:48;;;;;;;7.10;1.77;;;;;;;;;;5106463;28;20027;-69
2022/05/25 13:47:19;;;;;;;7.15;1.70;;;;;;;;;;5099607;28;20059;-68
2022/05/25 13:49:48;;;;;;;6.93;1.83;;;;;;;;;;5103869;28;20019;-69
2022/05/25 13:52:15;;;;;;;5.85;1.63;;;;;;;;;;5096925;28;20420;-69
2022/05/25 13:54:41;;;;;;;6.30;1.42;;;;;;;;;;5094952;28;20068;-68
2022/05/25 13:57:09;;;;;;;7.45;1.85;;;;;;;;;;5097058;28;20433;-68
2022/05/25 13:59:36;;;;;;;4.85;1.40;;;;;;;;;;5101569;28;20463;-68
2022/05/25 14:02:21;;;;;;;11.00;1.65;;;;;;;;;;5103966;28;20027;-69
2022/05/25 14:04:47;;;;;;;8.35;1.67;;;;;;;;;;5096871;28;20147;-68
2022/05/25 14:07:23;;;;;;;6.53;1.60;;;;;;;;;;5102685;28;20111;-68
2022/05/25 14:12:32;;;;;;;4.18;1.63;;;;;;;;;;5102121;28;20046;-68
2022/05/25 14:14:57;;;;;;;5.78;1.60;;;;;;;;;;5092382;28;20103;-68
2022/05/25 14:17:24;;;;;;;5.15;1.25;;;;;;;;;;5098949;28;20130;-68
2022/05/25 14:19:51;;;;;;;6.80;1.67;;;;;;;;;;5109471;28;20031;-68
2022/05/25 14:22:18;;;;;;;7.97;1.67;;;;;;;;;;5105822;28;20098;-69
2022/05/25 14:24:45;;;;;;;5.45;1.40;;;;;;;;;;5107731;28;20034;-69
2022/05/25 14:27:23;;;;;;;11.40;1.98;;;;;;;;;;5109187;28;20107;-68
2022/05/25 14:29:49;;;;;;;10.75;1.50;;;;;;;;;;5107651;28;20027;-68
2022/05/25 14:32:14;;;;;;;5.38;1.30;;;;;;;;;;5107954;28;20436;-69
2022/05/25 14:34:41;;;;;;;6.60;1.60;;;;;;;;;;5093365;28;20016;-68
2022/05/25 14:37:07;;;;;;;5.63;1.48;;;;;;;;;;5109421;28;20055;-68
2022/05/25 14:39:33;;;;;;;5.32;1.40;;;;;;;;;;5109725;28;20044;-68
2022/05/25 14:42:12;;;;;;;9.90;2.10;;;;;;;;;;5109698;28;20455;-68
2022/05/25 14:44:43;;;;;;;6.10;1.48;;;;;;;;;;5109132;28;20063;-68
2022/05/25 14:47:18;;;;;;;9.40;1.85;;;;;;;;;;5109550;28;20039;-68
2022/05/25 14:50:06;;;;;;;8.15;1.90;;;;;;;;;;5109433;28;20034;-68
2022/05/25 14:52:31;;;;;;;6.65;2.00;;;;;;;;;;5045555;28;20043;-68
2022/05/25 14:55:16;;;;;;;11.00;1.88;;;;;;;;;;5097915;28;20408;-68
2022/05/25 14:57:41;;;;;;;10.48;2.25;;;;;;;;;;5106404;28;20042;-68
2022/05/25 15:00:07;;;;;;;6.03;1.70;;;;;;;;;;5095705;28;20028;-67
2022/05/25 15:02:36;;;;;;;8.15;2.20;;;;;;;;;;5105712;28;20433;-68
2022/05/25 15:05:19;;;;;;;10.00;2.00;;;;;;;;;;5105373;28;20043;-69
2022/05/25 15:07:50;;;;;;;9.30;1.70;;;;;;;;;;5102947;28;20436;-68
2022/05/25 15:10:16;;;;;;;7.80;2.13;;;;;;;;;;5108754;28;20082;-68
2022/05/25 15:12:45;;;;;;;6.85;1.85;;;;;;;;;;5106016;28;20048;-68
2022/05/25 15:18:29;;;;;;;7.53;2.08;;;;;;;;;;5095731;28;20047;-68
2022/05/25 15:20:55;;;;;;;5.82;1.98;;;;;;;;;;5096444;28;20581;-68